Time;durP1;ratioP1;P1;durP2;ratioP2;P2;SDS_P1;SDS_P2;PMS_P1;PMS_P2;Temp;Humidity;BMP_temperature;BMP_pressure;BME280_temperature;BME280_humidity;BME280_pressure;Samples;Min_cycle;Max_cycle;Signal;HPM_P1;HPM_P2
2021/03/12 00:00:55;;;;;;;73.37;40.17;;;;;;;;;;4356852;32;20396;-70
2021/03/12 00:03:24;;;;;;;73.90;40.43;;;;;;;;;;4358427;32;20246;-71
2021/03/12 00:05:51;;;;;;;74.00;38.40;;;;;;;;;;4343775;32;20254;-70
2021/03/12 00:08:17;;;;;;;79.23;40.60;;;;;;;;;;4358415;32;20383;-68
2021/03/12 00:10:43;;;;;;;84.23;46.53;;;;;;;;;;4359378;32;20618;-67
2021/03/12 00:13:10;;;;;;;126.10;64.90;;;;;;;;;;4345279;32;20364;-68
2021/03/12 00:15:36;;;;;;;124.40;62.97;;;;;;;;;;4344893;32;20281;-67
2021/03/12 00:18:02;;;;;;;108.50;61.17;;;;;;;;;;4345399;32;20223;-66
2021/03/12 00:20:32;;;;;;;105.27;59.07;;;;;;;;;;4353132;32;20265;-66
2021/03/12 00:22:57;;;;;;;104.67;61.10;;;;;;;;;;4359667;32;20482;-68
2021/03/12 00:25:26;;;;;;;109.20;64.47;;;;;;;;;;4353590;32;20304;-66
2021/03/12 00:27:52;;;;;;;111.83;63.27;;;;;;;;;;4359301;32;20684;-66
2021/03/12 00:30:19;;;;;;;128.93;77.93;;;;;;;;;;4363334;32;20348;-67
2021/03/12 00:32:44;;;;;;;119.90;68.67;;;;;;;;;;4359490;32;20562;-67
2021/03/12 00:35:11;;;;;;;124.93;67.37;;;;;;;;;;4354763;32;20796;-65
2021/03/12 00:37:36;;;;;;;114.53;63.70;;;;;;;;;;4356007;32;20252;-67
2021/03/12 00:40:26;;;;;;;115.43;64.53;;;;;;;;;;4360656;32;20290;-67
2021/03/12 00:42:52;;;;;;;94.17;53.23;;;;;;;;;;4358045;32;20273;-69
2021/03/12 00:45:19;;;;;;;113.77;59.83;;;;;;;;;;4353493;32;20293;-70
2021/03/12 00:47:45;;;;;;;109.47;54.07;;;;;;;;;;4343642;32;20248;-70
2021/03/12 00:50:13;;;;;;;116.30;61.87;;;;;;;;;;4340354;32;20294;-68
2021/03/12 00:52:38;;;;;;;121.93;60.77;;;;;;;;;;4357523;32;20231;-70
2021/03/12 00:55:06;;;;;;;142.37;66.73;;;;;;;;;;4354755;32;20293;-61
2021/03/12 00:57:31;;;;;;;128.50;65.40;;;;;;;;;;4356584;32;20238;-62
2021/03/12 00:59:57;;;;;;;127.40;62.23;;;;;;;;;;4354714;32;20729;-62
2021/03/12 01:02:22;;;;;;;127.63;59.80;;;;;;;;;;4355108;32;20724;-62
2021/03/12 01:04:48;;;;;;;120.60;58.17;;;;;;;;;;4354394;32;20326;-62
2021/03/12 01:07:14;;;;;;;118.43;54.93;;;;;;;;;;4355329;32;20238;-62
2021/03/12 01:09:39;;;;;;;109.30;53.17;;;;;;;;;;4354998;32;20708;-62
2021/03/12 01:12:05;;;;;;;78.07;43.27;;;;;;;;;;4342147;32;20778;-71
2021/03/12 01:14:31;;;;;;;78.97;42.90;;;;;;;;;;4353927;32;20264;-72
2021/03/12 01:16:56;;;;;;;76.93;40.97;;;;;;;;;;4355109;32;20293;-68
2021/03/12 01:19:22;;;;;;;77.03;39.83;;;;;;;;;;4345720;32;20234;-69
2021/03/12 01:21:47;;;;;;;77.07;40.10;;;;;;;;;;4356385;32;20449;-68
2021/03/12 01:24:13;;;;;;;77.47;38.00;;;;;;;;;;4354808;32;20248;-70
2021/03/12 01:26:39;;;;;;;69.07;37.37;;;;;;;;;;4340849;32;20371;-70
2021/03/12 01:29:04;;;;;;;78.57;42.97;;;;;;;;;;4365916;32;20238;-70
2021/03/12 01:31:30;;;;;;;108.37;53.10;;;;;;;;;;4357511;32;20350;-70
2021/03/12 01:33:56;;;;;;;112.43;51.00;;;;;;;;;;4353474;32;20259;-70
2021/03/12 01:36:21;;;;;;;95.07;51.63;;;;;;;;;;4341244;32;20301;-72
2021/03/12 01:38:47;;;;;;;112.17;56.63;;;;;;;;;;4365462;32;20436;-70
2021/03/12 01:41:12;;;;;;;134.67;59.23;;;;;;;;;;4356672;32;20347;-69
2021/03/12 01:43:38;;;;;;;125.23;58.30;;;;;;;;;;4353194;32;20233;-72
2021/03/12 01:46:03;;;;;;;123.90;55.93;;;;;;;;;;4354755;32;20645;-72
2021/03/12 01:48:30;;;;;;;99.23;51.73;;;;;;;;;;4354223;32;20695;-65
2021/03/12 01:50:58;;;;;;;106.37;52.23;;;;;;;;;;4357071;32;20627;-64
2021/03/12 01:53:25;;;;;;;123.60;56.47;;;;;;;;;;4348671;32;20306;-66
2021/03/12 01:55:51;;;;;;;99.83;51.07;;;;;;;;;;4356616;32;20223;-68
2021/03/12 01:58:18;;;;;;;89.03;46.87;;;;;;;;;;4352180;32;20794;-70
2021/03/12 02:00:44;;;;;;;78.57;43.10;;;;;;;;;;4367416;32;20230;-70
2021/03/12 02:03:11;;;;;;;70.47;39.20;;;;;;;;;;4354065;32;20718;-70
2021/03/12 02:05:37;;;;;;;77.87;42.17;;;;;;;;;;4339868;32;20395;-70
2021/03/12 02:08:04;;;;;;;68.93;37.93;;;;;;;;;;4352941;32;20777;-71
2021/03/12 02:10:30;;;;;;;66.10;35.97;;;;;;;;;;4355918;32;20654;-68
2021/03/12 02:13:04;;;;;;;55.27;33.33;;;;;;;;;;4352831;32;20270;-71
2021/03/12 02:15:36;;;;;;;51.13;30.60;;;;;;;;;;4355867;32;20603;-70
2021/03/12 02:18:44;;;;;;;62.93;34.80;;;;;;;;;;4354447;32;20253;-70
2021/03/12 02:21:17;;;;;;;70.13;36.20;;;;;;;;;;4297786;33;20275;-69
2021/03/12 02:23:54;;;;;;;58.97;34.27;;;;;;;;;;4291739;33;20262;-71
2021/03/12 02:26:41;;;;;;;78.00;42.10;;;;;;;;;;4334269;32;20226;-70
2021/03/12 02:29:09;;;;;;;73.73;42.37;;;;;;;;;;4352812;32;20319;-71
2021/03/12 02:31:35;;;;;;;88.07;45.23;;;;;;;;;;4343615;32;20394;-73
2021/03/12 02:34:04;;;;;;;85.87;44.17;;;;;;;;;;4350327;32;20214;-73
2021/03/12 02:36:34;;;;;;;97.93;46.87;;;;;;;;;;4368346;32;20235;-72
2021/03/12 02:39:00;;;;;;;84.23;48.47;;;;;;;;;;4352709;32;20203;-72
2021/03/12 02:41:28;;;;;;;96.10;53.20;;;;;;;;;;4356157;32;20359;-72
2021/03/12 02:43:55;;;;;;;117.90;61.47;;;;;;;;;;4351848;32;20215;-73
2021/03/12 02:46:21;;;;;;;96.77;55.20;;;;;;;;;;4358142;32;20276;-72
2021/03/12 02:48:49;;;;;;;106.53;56.17;;;;;;;;;;4350798;32;20324;-72
2021/03/12 02:51:17;;;;;;;85.97;46.80;;;;;;;;;;4358540;32;20688;-72
2021/03/12 02:53:43;;;;;;;82.63;44.83;;;;;;;;;;4352245;32;20218;-61
2021/03/12 02:56:09;;;;;;;74.13;44.87;;;;;;;;;;4357186;32;20650;-61
2021/03/12 02:58:35;;;;;;;104.47;50.60;;;;;;;;;;4351657;32;20633;-60
2021/03/12 03:01:03;;;;;;;79.57;45.37;;;;;;;;;;4358114;32;20294;-61
2021/03/12 03:03:30;;;;;;;94.60;45.90;;;;;;;;;;4364676;32;20257;-60
2021/03/12 03:05:56;;;;;;;72.30;40.20;;;;;;;;;;4351172;32;20757;-62
2021/03/12 03:08:22;;;;;;;75.90;40.07;;;;;;;;;;4352554;32;20235;-66
2021/03/12 03:10:48;;;;;;;80.97;39.93;;;;;;;;;;4356559;32;20466;-64
2021/03/12 03:13:13;;;;;;;83.93;41.47;;;;;;;;;;4354045;32;20648;-64
2021/03/12 03:15:41;;;;;;;79.33;39.87;;;;;;;;;;4348180;32;20352;-66
2021/03/12 03:18:07;;;;;;;81.83;41.70;;;;;;;;;;4353811;32;20347;-65
2021/03/12 03:20:34;;;;;;;67.93;36.67;;;;;;;;;;4366763;32;20242;-64
2021/03/12 03:23:00;;;;;;;58.60;33.17;;;;;;;;;;4355046;32;20230;-68
2021/03/12 03:25:25;;;;;;;64.97;35.37;;;;;;;;;;4354585;32;20297;-66
2021/03/12 03:27:51;;;;;;;61.33;38.07;;;;;;;;;;4341830;32;20710;-66
2021/03/12 03:30:17;;;;;;;73.77;40.90;;;;;;;;;;4353543;32;20404;-66
2021/03/12 03:32:43;;;;;;;69.27;37.10;;;;;;;;;;4341777;33;20840;-68
2021/03/12 03:35:10;;;;;;;75.23;48.10;;;;;;;;;;4354539;32;20277;-68
2021/03/12 03:37:36;;;;;;;100.73;71.53;;;;;;;;;;4355079;33;20393;-68
2021/03/12 03:40:05;;;;;;;118.10;65.13;;;;;;;;;;4353827;33;20659;-67
2021/03/12 03:42:33;;;;;;;113.00;62.97;;;;;;;;;;4342740;32;20259;-68
2021/03/12 03:45:00;;;;;;;117.03;65.20;;;;;;;;;;4354090;32;20319;-66
2021/03/12 03:47:30;;;;;;;103.97;60.47;;;;;;;;;;4356217;33;20321;-66
2021/03/12 03:49:57;;;;;;;103.13;60.53;;;;;;;;;;4341343;33;20290;-67
2021/03/12 03:52:23;;;;;;;86.13;49.53;;;;;;;;;;4357130;33;20289;-69
2021/03/12 03:54:52;;;;;;;105.43;56.40;;;;;;;;;;4352882;33;20242;-67
2021/03/12 03:57:20;;;;;;;74.40;42.20;;;;;;;;;;4343064;33;20668;-67
2021/03/12 03:59:47;;;;;;;62.10;34.77;;;;;;;;;;4352283;33;20234;-68
2021/03/12 04:02:15;;;;;;;62.90;35.23;;;;;;;;;;4357403;33;20238;-66
2021/03/12 04:04:45;;;;;;;80.23;41.43;;;;;;;;;;4363246;32;20249;-61
2021/03/12 04:07:12;;;;;;;70.77;37.70;;;;;;;;;;4357123;33;20774;-66
2021/03/12 04:09:40;;;;;;;64.37;34.70;;;;;;;;;;4351684;33;20708;-66
2021/03/12 04:12:07;;;;;;;52.20;32.30;;;;;;;;;;4357660;33;20221;-66
2021/03/12 04:14:33;;;;;;;56.13;32.63;;;;;;;;;;4338568;33;20285;-68
2021/03/12 04:17:00;;;;;;;63.20;34.17;;;;;;;;;;4357207;33;20250;-65
2021/03/12 04:19:25;;;;;;;66.83;36.13;;;;;;;;;;4351470;32;20580;-64
2021/03/12 04:21:51;;;;;;;62.30;35.93;;;;;;;;;;4343826;33;20239;-72
2021/03/12 04:24:17;;;;;;;58.00;33.00;;;;;;;;;;4338703;33;20389;-72
2021/03/12 04:26:43;;;;;;;70.27;37.23;;;;;;;;;;4356994;32;20643;-74
2021/03/12 04:29:09;;;;;;;75.40;41.00;;;;;;;;;;4338142;33;20699;-71
2021/03/12 04:31:35;;;;;;;74.70;39.67;;;;;;;;;;4344016;33;20289;-71
2021/03/12 04:34:01;;;;;;;68.33;38.37;;;;;;;;;;4353157;33;20272;-73
2021/03/12 04:36:27;;;;;;;63.90;38.43;;;;;;;;;;4343985;33;20329;-71
2021/03/12 04:38:52;;;;;;;68.43;41.67;;;;;;;;;;4338383;33;20463;-69
2021/03/12 04:41:18;;;;;;;77.83;49.27;;;;;;;;;;4359865;32;20364;-67
2021/03/12 04:43:45;;;;;;;89.80;52.60;;;;;;;;;;4355601;32;20222;-72
2021/03/12 04:46:12;;;;;;;100.43;54.00;;;;;;;;;;4356062;32;20333;-53
2021/03/12 04:48:40;;;;;;;87.53;50.73;;;;;;;;;;4355608;32;20297;-54
2021/03/12 04:51:08;;;;;;;90.53;54.80;;;;;;;;;;4359622;32;20264;-54
2021/03/12 04:53:33;;;;;;;95.93;53.37;;;;;;;;;;4355414;32;20325;-52
2021/03/12 04:55:59;;;;;;;92.07;51.17;;;;;;;;;;4369591;32;20250;-54
2021/03/12 04:58:25;;;;;;;95.87;52.23;;;;;;;;;;4342464;32;20257;-54
2021/03/12 05:00:52;;;;;;;85.17;48.53;;;;;;;;;;4355303;32;20284;-54
2021/03/12 05:03:18;;;;;;;87.67;46.43;;;;;;;;;;4358228;32;20235;-67
2021/03/12 05:05:45;;;;;;;86.87;49.50;;;;;;;;;;4355428;32;20655;-66
2021/03/12 05:08:11;;;;;;;75.97;45.30;;;;;;;;;;4357172;32;20222;-68
2021/03/12 05:10:37;;;;;;;127.37;70.60;;;;;;;;;;4355827;32;20351;-72
2021/03/12 05:13:03;;;;;;;148.63;77.67;;;;;;;;;;4358701;32;20325;-62
2021/03/12 05:15:29;;;;;;;168.33;90.77;;;;;;;;;;4365144;32;20310;-61
2021/03/12 05:17:55;;;;;;;133.37;69.30;;;;;;;;;;4358538;32;20222;-61
2021/03/12 05:20:21;;;;;;;118.47;68.33;;;;;;;;;;4337438;32;20305;-61
2021/03/12 05:22:47;;;;;;;107.93;61.33;;;;;;;;;;4358740;32;20360;-61
2021/03/12 05:25:12;;;;;;;100.17;63.23;;;;;;;;;;4338709;32;20362;-67
2021/03/12 05:27:39;;;;;;;94.47;53.80;;;;;;;;;;4344811;32;20230;-67
2021/03/12 05:30:05;;;;;;;146.93;74.87;;;;;;;;;;4350744;32;20393;-62
2021/03/12 05:32:30;;;;;;;107.10;62.07;;;;;;;;;;4358798;32;20292;-68
2021/03/12 05:34:56;;;;;;;107.50;64.60;;;;;;;;;;4337708;32;20726;-67
2021/03/12 05:37:21;;;;;;;111.47;65.60;;;;;;;;;;4359150;32;20226;-62
2021/03/12 05:39:47;;;;;;;131.37;71.00;;;;;;;;;;4350165;32;20315;-56
2021/03/12 05:42:13;;;;;;;230.60;118.80;;;;;;;;;;4358211;32;20238;-56
2021/03/12 05:44:39;;;;;;;191.00;107.60;;;;;;;;;;4351988;32;20281;-56
2021/03/12 05:47:06;;;;;;;163.30;96.10;;;;;;;;;;4359125;32;20653;-56
2021/03/12 05:49:34;;;;;;;153.90;90.17;;;;;;;;;;4353398;32;20210;-56
2021/03/12 05:52:03;;;;;;;132.20;75.57;;;;;;;;;;4344897;32;20580;-57
2021/03/12 05:54:30;;;;;;;139.90;83.30;;;;;;;;;;4350641;32;20529;-57
2021/03/12 05:56:57;;;;;;;152.73;90.07;;;;;;;;;;4356373;32;20280;-57
2021/03/12 05:59:24;;;;;;;140.90;82.43;;;;;;;;;;4353339;32;20239;-57
2021/03/12 06:01:50;;;;;;;156.93;88.63;;;;;;;;;;4355458;32;20238;-57
2021/03/12 06:04:16;;;;;;;154.40;91.37;;;;;;;;;;4342218;32;20284;-58
2021/03/12 06:06:43;;;;;;;157.10;92.37;;;;;;;;;;4364485;32;20243;-58
2021/03/12 06:09:08;;;;;;;139.40;76.27;;;;;;;;;;4355304;32;20624;-56
2021/03/12 06:11:34;;;;;;;117.73;70.20;;;;;;;;;;4353678;32;20214;-55
2021/03/12 06:14:01;;;;;;;98.07;57.90;;;;;;;;;;4354157;32;20561;-55
2021/03/12 06:16:28;;;;;;;105.27;58.33;;;;;;;;;;4352624;32;20303;-53
2021/03/12 06:19:13;;;;;;;95.27;50.87;;;;;;;;;;4352643;32;20242;-56
2021/03/12 06:21:47;;;;;;;102.43;55.70;;;;;;;;;;4356078;32;20319;-55
2021/03/12 06:24:33;;;;;;;99.57;56.53;;;;;;;;;;4354183;32;20266;-57
2021/03/12 06:26:59;;;;;;;94.73;57.87;;;;;;;;;;4351831;32;20262;-57
2021/03/12 06:29:33;;;;;;;103.73;57.53;;;;;;;;;;4353796;32;20233;-57
2021/03/12 06:31:59;;;;;;;117.30;59.07;;;;;;;;;;4355834;32;20786;-57
2021/03/12 06:34:25;;;;;;;103.07;58.10;;;;;;;;;;4351413;32;20288;-55
2021/03/12 06:36:51;;;;;;;98.13;53.90;;;;;;;;;;4327022;32;20288;-55
2021/03/12 06:39:17;;;;;;;109.47;55.37;;;;;;;;;;4339536;32;20321;-56
2021/03/12 06:41:45;;;;;;;106.03;57.23;;;;;;;;;;4342550;32;20229;-56
2021/03/12 06:44:26;;;;;;;106.77;54.53;;;;;;;;;;4351165;32;20234;-55
2021/03/12 06:46:51;;;;;;;92.07;57.00;;;;;;;;;;4356253;32;20309;-54
2021/03/12 06:49:17;;;;;;;97.07;54.20;;;;;;;;;;4351763;32;20303;-54
2021/03/12 06:51:56;;;;;;;88.27;55.17;;;;;;;;;;4355200;32;20592;-55
2021/03/12 06:54:23;;;;;;;93.40;51.70;;;;;;;;;;4351101;32;20237;-56
2021/03/12 06:56:49;;;;;;;98.80;58.00;;;;;;;;;;4351796;32;20291;-55
2021/03/12 06:59:28;;;;;;;99.13;56.97;;;;;;;;;;4351954;32;20701;-55
2021/03/12 07:01:57;;;;;;;87.70;48.47;;;;;;;;;;4351562;32;20226;-55
2021/03/12 07:04:24;;;;;;;107.30;61.00;;;;;;;;;;4347461;32;20341;-55
2021/03/12 07:06:50;;;;;;;110.50;62.97;;;;;;;;;;4366150;32;20282;-56
2021/03/12 07:09:17;;;;;;;65.17;37.80;;;;;;;;;;4364994;32;20257;-55
2021/03/12 07:11:44;;;;;;;65.57;34.33;;;;;;;;;;4367825;32;20242;-54
2021/03/12 07:14:09;;;;;;;69.53;40.63;;;;;;;;;;4352458;32;20230;-55
2021/03/12 07:16:35;;;;;;;49.73;33.20;;;;;;;;;;4348393;32;20211;-55
2021/03/12 07:19:00;;;;;;;34.83;24.53;;;;;;;;;;4348727;32;20242;-55
2021/03/12 07:21:29;;;;;;;51.17;29.27;;;;;;;;;;4335666;32;20242;-55
2021/03/12 07:24:00;;;;;;;64.67;37.53;;;;;;;;;;4349369;32;20641;-55
2021/03/12 07:26:35;;;;;;;69.90;36.63;;;;;;;;;;4351837;32;20317;-55
2021/03/12 07:29:01;;;;;;;54.67;30.97;;;;;;;;;;4354798;32;20285;-55
2021/03/12 07:31:36;;;;;;;58.57;32.33;;;;;;;;;;4346011;32;21578;-55
2021/03/12 07:34:26;;;;;;;55.97;33.50;;;;;;;;;;4352174;32;20336;-55
2021/03/12 07:36:55;;;;;;;58.27;34.67;;;;;;;;;;4354605;33;20238;-55
2021/03/12 07:39:24;;;;;;;66.77;37.90;;;;;;;;;;4356239;33;20222;-55
2021/03/12 07:41:50;;;;;;;65.33;40.40;;;;;;;;;;4356276;33;20581;-55
2021/03/12 07:44:18;;;;;;;66.90;39.67;;;;;;;;;;4342170;33;20545;-55
2021/03/12 07:46:51;;;;;;;55.67;34.17;;;;;;;;;;4356114;33;20203;-54
2021/03/12 07:49:32;;;;;;;45.67;28.50;;;;;;;;;;4355868;33;20292;-53
2021/03/12 07:51:59;;;;;;;37.43;24.83;;;;;;;;;;4355794;33;20469;-56
2021/03/12 07:54:48;;;;;;;38.63;24.20;;;;;;;;;;4341003;33;20288;-55
2021/03/12 07:57:35;;;;;;;28.53;19.33;;;;;;;;;;4336380;33;20273;-55
2021/03/12 08:00:03;;;;;;;39.33;21.97;;;;;;;;;;4344758;32;20246;-53
2021/03/12 08:02:50;;;;;;;54.97;28.87;;;;;;;;;;4355191;33;20273;-54
2021/03/12 08:05:40;;;;;;;60.13;31.73;;;;;;;;;;4354822;32;20976;-54
2021/03/12 08:08:35;;;;;;;58.60;33.50;;;;;;;;;;4341756;33;20245;-54
2021/03/12 08:11:27;;;;;;;53.90;31.70;;;;;;;;;;4338717;33;20273;-54
2021/03/12 08:14:08;;;;;;;50.13;30.97;;;;;;;;;;4353059;32;20767;-54
2021/03/12 08:16:54;;;;;;;50.27;25.80;;;;;;;;;;4363950;32;20214;-54
2021/03/12 08:19:37;;;;;;;41.77;26.60;;;;;;;;;;4358577;32;20245;-54
2021/03/12 08:22:28;;;;;;;44.20;29.67;;;;;;;;;;4358467;32;20254;-53
2021/03/12 08:24:56;;;;;;;48.87;30.03;;;;;;;;;;4344807;32;20210;-54
2021/03/12 08:27:45;;;;;;;50.63;30.10;;;;;;;;;;4357526;32;20289;-54
2021/03/12 08:30:24;;;;;;;38.33;26.00;;;;;;;;;;4356664;32;20262;-54
2021/03/12 08:32:51;;;;;;;38.80;23.80;;;;;;;;;;4368369;32;20586;-54
2021/03/12 08:35:41;;;;;;;43.77;24.90;;;;;;;;;;4358556;32;20260;-55
2021/03/12 08:38:25;;;;;;;45.17;25.17;;;;;;;;;;4366577;32;20452;-55
2021/03/12 08:40:56;;;;;;;37.40;24.37;;;;;;;;;;4358888;32;20517;-54
2021/03/12 08:43:25;;;;;;;322.07;200.90;;;;;;;;;;4358236;32;20272;-54
2021/03/12 08:45:56;;;;;;;106.43;72.80;;;;;;;;;;4344148;32;20254;-54
2021/03/12 08:48:26;;;;;;;53.97;32.37;;;;;;;;;;4358112;32;20223;-54
2021/03/12 08:50:57;;;;;;;51.23;28.87;;;;;;;;;;4357817;32;20212;-54
2021/03/12 08:53:27;;;;;;;40.03;23.80;;;;;;;;;;4363196;32;20967;-55
2021/03/12 08:55:55;;;;;;;35.37;24.17;;;;;;;;;;4348192;32;20653;-56
2021/03/12 08:58:23;;;;;;;40.30;25.33;;;;;;;;;;4344171;32;20246;-56
2021/03/12 09:00:54;;;;;;;75.00;47.37;;;;;;;;;;4357950;32;20218;-55
2021/03/12 09:03:26;;;;;;;37.90;21.63;;;;;;;;;;4358542;32;20226;-54
2021/03/12 09:06:00;;;;;;;33.43;23.97;;;;;;;;;;4343911;32;20713;-55
2021/03/12 09:08:28;;;;;;;33.20;21.23;;;;;;;;;;4346921;32;20234;-55
2021/03/12 09:10:54;;;;;;;29.30;20.10;;;;;;;;;;4356214;32;20863;-55
2021/03/12 09:13:27;;;;;;;47.57;27.47;;;;;;;;;;4357365;32;20217;-55
2021/03/12 09:15:52;;;;;;;33.53;26.93;;;;;;;;;;4357618;32;20622;-54
2021/03/12 09:18:20;;;;;;;34.80;24.87;;;;;;;;;;4343630;32;20261;-55
2021/03/12 09:20:57;;;;;;;28.33;22.97;;;;;;;;;;4343976;32;20293;-55
2021/03/12 09:24:00;;;;;;;40.30;23.27;;;;;;;;;;4357275;32;20226;-55
2021/03/12 09:26:31;;;;;;;43.30;30.17;;;;;;;;;;4312093;33;20830;-54
2021/03/12 09:28:59;;;;;;;28.03;20.63;;;;;;;;;;4335864;32;20260;-55
2021/03/12 09:31:32;;;;;;;34.00;21.43;;;;;;;;;;4344478;32;20266;-54
2021/03/12 09:34:00;;;;;;;37.07;24.10;;;;;;;;;;4357400;32;20420;-56
2021/03/12 09:36:43;;;;;;;51.53;30.23;;;;;;;;;;4357855;32;20222;-55
2021/03/12 09:39:16;;;;;;;33.70;21.60;;;;;;;;;;4354536;32;20564;-56
2021/03/12 09:41:44;;;;;;;35.07;23.27;;;;;;;;;;4357570;32;20230;-55
2021/03/12 09:44:16;;;;;;;55.83;32.23;;;;;;;;;;4356574;32;20240;-56
2021/03/12 09:46:44;;;;;;;55.23;29.80;;;;;;;;;;4344018;32;20253;-55
2021/03/12 09:49:15;;;;;;;50.13;29.07;;;;;;;;;;4356506;32;20241;-55
2021/03/12 09:51:44;;;;;;;39.37;26.23;;;;;;;;;;4343965;32;20239;-54
2021/03/12 09:54:11;;;;;;;49.73;33.63;;;;;;;;;;4356195;32;20662;-55
2021/03/12 09:56:44;;;;;;;45.10;29.67;;;;;;;;;;4343704;32;20297;-55
2021/03/12 09:59:10;;;;;;;50.67;32.57;;;;;;;;;;4356829;32;20288;-56
2021/03/12 10:01:38;;;;;;;43.73;30.07;;;;;;;;;;4356828;32;20335;-56
2021/03/12 10:04:22;;;;;;;62.70;35.60;;;;;;;;;;4342594;32;20675;-55
2021/03/12 10:07:01;;;;;;;53.47;33.87;;;;;;;;;;4356870;32;20708;-54
2021/03/12 10:09:29;;;;;;;57.93;33.13;;;;;;;;;;4356054;32;20301;-55
2021/03/12 10:11:56;;;;;;;51.63;32.67;;;;;;;;;;4356866;32;20292;-55
2021/03/12 10:14:40;;;;;;;51.13;33.80;;;;;;;;;;4356883;32;20233;-55
2021/03/12 10:17:22;;;;;;;49.67;32.67;;;;;;;;;;4350567;32;20265;-54
2021/03/12 10:20:10;;;;;;;48.07;30.37;;;;;;;;;;4340899;32;20415;-55
2021/03/12 10:22:36;;;;;;;44.00;30.37;;;;;;;;;;4356402;32;20530;-54
2021/03/12 10:25:05;;;;;;;60.30;37.83;;;;;;;;;;4343244;32;20242;-55
2021/03/12 10:27:39;;;;;;;52.13;31.00;;;;;;;;;;4356561;32;20452;-55
2021/03/12 10:30:07;;;;;;;58.40;33.60;;;;;;;;;;4341672;32;20340;-55
2021/03/12 10:32:38;;;;;;;48.73;30.50;;;;;;;;;;4342800;32;20326;-54
2021/03/12 10:35:18;;;;;;;52.77;31.03;;;;;;;;;;4356609;32;20218;-55
2021/03/12 10:37:46;;;;;;;50.60;29.70;;;;;;;;;;4342361;32;20737;-55
2021/03/12 10:40:12;;;;;;;45.73;30.87;;;;;;;;;;4356264;32;20268;-56
2021/03/12 10:42:38;;;;;;;102.93;50.27;;;;;;;;;;4355683;32;20290;-54
2021/03/12 10:45:07;;;;;;;355.07;125.83;;;;;;;;;;4342545;32;20301;-56
2021/03/12 10:47:33;;;;;;;188.20;75.63;;;;;;;;;;4347596;32;20246;-55
2021/03/12 10:49:59;;;;;;;55.43;37.17;;;;;;;;;;4355505;32;20282;-55
2021/03/12 10:52:26;;;;;;;103.97;50.00;;;;;;;;;;4356013;32;20412;-56
2021/03/12 10:54:53;;;;;;;65.17;39.97;;;;;;;;;;4356489;32;20229;-56
2021/03/12 10:57:40;;;;;;;68.53;42.40;;;;;;;;;;4342458;32;20502;-55
2021/03/12 11:00:13;;;;;;;54.40;37.23;;;;;;;;;;4355744;32;20239;-56
2021/03/12 11:02:39;;;;;;;63.10;40.60;;;;;;;;;;4360880;32;20242;-55
2021/03/12 11:05:06;;;;;;;225.60;102.50;;;;;;;;;;4356476;32;20289;-55
2021/03/12 11:07:32;;;;;;;86.87;54.80;;;;;;;;;;4355842;32;20246;-55
2021/03/12 11:09:59;;;;;;;154.10;78.57;;;;;;;;;;4339218;32;20324;-56
2021/03/12 11:12:26;;;;;;;84.00;50.97;;;;;;;;;;4356117;32;20230;-55
2021/03/12 11:14:52;;;;;;;64.87;41.37;;;;;;;;;;4356375;32;20318;-55
2021/03/12 11:17:17;;;;;;;49.73;30.50;;;;;;;;;;4342430;32;20329;-55
2021/03/12 11:19:43;;;;;;;37.87;27.07;;;;;;;;;;4341946;32;20272;-54
2021/03/12 11:22:08;;;;;;;69.63;30.67;;;;;;;;;;4355592;32;20264;-55
2021/03/12 11:24:34;;;;;;;38.40;25.73;;;;;;;;;;4355257;32;20638;-54
2021/03/12 11:27:00;;;;;;;29.80;19.13;;;;;;;;;;4341245;32;20250;-55
2021/03/12 11:29:28;;;;;;;31.87;23.03;;;;;;;;;;4354509;32;20258;-53
2021/03/12 11:31:54;;;;;;;31.77;21.00;;;;;;;;;;4354336;32;20287;-54
2021/03/12 11:34:19;;;;;;;63.07;32.17;;;;;;;;;;4340504;32;20732;-54
2021/03/12 11:36:45;;;;;;;70.87;35.80;;;;;;;;;;4354436;32;20293;-54
2021/03/12 11:39:11;;;;;;;40.40;23.03;;;;;;;;;;4341405;33;20332;-53
2021/03/12 11:41:38;;;;;;;21.23;12.30;;;;;;;;;;4342547;33;20831;-54
2021/03/12 11:44:04;;;;;;;45.43;13.97;;;;;;;;;;4355968;33;20561;-54
2021/03/12 11:46:30;;;;;;;31.00;21.50;;;;;;;;;;4343024;33;20305;-53
2021/03/12 11:48:56;;;;;;;27.40;17.77;;;;;;;;;;4356187;32;20238;-54
2021/03/12 11:51:22;;;;;;;74.23;44.23;;;;;;;;;;4357777;32;20260;-55
2021/03/12 11:53:47;;;;;;;41.33;24.13;;;;;;;;;;4344862;32;20459;-55
2021/03/12 11:56:13;;;;;;;41.47;23.10;;;;;;;;;;4346058;32;20408;-55
2021/03/12 11:58:38;;;;;;;17.97;12.63;;;;;;;;;;4359441;32;20695;-54
2021/03/12 12:01:04;;;;;;;21.43;14.00;;;;;;;;;;4359443;32;20747;-57
2021/03/12 12:03:30;;;;;;;17.10;11.93;;;;;;;;;;4358695;32;20286;-53
2021/03/12 12:05:55;;;;;;;24.23;13.20;;;;;;;;;;4359429;32;20289;-54
2021/03/12 12:08:20;;;;;;;31.23;17.47;;;;;;;;;;4358555;32;20234;-54
2021/03/12 12:10:46;;;;;;;28.27;19.20;;;;;;;;;;4369484;32;20307;-59
2021/03/12 12:13:11;;;;;;;16.97;9.60;;;;;;;;;;4346273;32;20615;-59
2021/03/12 12:15:37;;;;;;;27.63;15.73;;;;;;;;;;4345725;32;20321;-60
2021/03/12 12:18:07;;;;;;;17.33;8.73;;;;;;;;;;4358737;32;20230;-60
2021/03/12 12:20:35;;;;;;;26.20;16.13;;;;;;;;;;4344809;32;20227;-59
2021/03/12 12:23:01;;;;;;;16.60;9.83;;;;;;;;;;4344227;32;20234;-59
2021/03/12 12:25:27;;;;;;;13.17;9.40;;;;;;;;;;4358892;32;20754;-61
2021/03/12 12:27:53;;;;;;;19.30;10.47;;;;;;;;;;4345046;32;20218;-61
2021/03/12 12:30:18;;;;;;;12.93;8.03;;;;;;;;;;4359381;32;20349;-60
2021/03/12 12:32:44;;;;;;;23.17;15.27;;;;;;;;;;4344980;32;20226;-60
2021/03/12 12:35:10;;;;;;;21.67;12.13;;;;;;;;;;4345267;32;20776;-62
2021/03/12 12:37:36;;;;;;;13.60;10.00;;;;;;;;;;4344755;32;20227;-61
2021/03/12 12:40:05;;;;;;;22.33;11.60;;;;;;;;;;4359112;32;20343;-61
2021/03/12 12:42:31;;;;;;;15.93;9.60;;;;;;;;;;4345365;32;20249;-61
2021/03/12 12:44:57;;;;;;;19.47;11.10;;;;;;;;;;4344986;32;20412;-60
2021/03/12 12:47:22;;;;;;;13.43;10.10;;;;;;;;;;4344965;32;20242;-61
2021/03/12 12:49:48;;;;;;;18.27;11.10;;;;;;;;;;4358862;32;20390;-60
2021/03/12 12:52:13;;;;;;;24.87;12.70;;;;;;;;;;4358209;32;20400;-59
2021/03/12 12:54:39;;;;;;;39.63;24.20;;;;;;;;;;4344721;32;20253;-61
2021/03/12 12:57:05;;;;;;;20.67;14.57;;;;;;;;;;4358853;32;20295;-60
2021/03/12 12:59:30;;;;;;;24.60;12.87;;;;;;;;;;4348768;32;20231;-60
2021/03/12 13:01:56;;;;;;;24.00;14.50;;;;;;;;;;4338999;32;20372;-57
2021/03/12 13:04:21;;;;;;;43.00;28.10;;;;;;;;;;4355610;32;20253;-59
2021/03/12 13:06:47;;;;;;;21.93;12.77;;;;;;;;;;4338781;32;20344;-59
2021/03/12 13:09:12;;;;;;;12.10;7.30;;;;;;;;;;4354639;32;20234;-58
2021/03/12 13:11:38;;;;;;;30.27;11.60;;;;;;;;;;4356237;32;20214;-59
2021/03/12 13:14:03;;;;;;;13.13;8.27;;;;;;;;;;4355715;32;20502;-57
2021/03/12 13:16:29;;;;;;;11.63;8.40;;;;;;;;;;4355745;32;20656;-58
2021/03/12 13:18:55;;;;;;;10.80;7.63;;;;;;;;;;4355944;32;20337;-57
2021/03/12 13:21:21;;;;;;;18.10;8.57;;;;;;;;;;4355814;32;20230;-57
2021/03/12 13:23:46;;;;;;;20.30;11.13;;;;;;;;;;4353924;32;20321;-57
2021/03/12 13:26:11;;;;;;;16.27;9.10;;;;;;;;;;4340208;32;20321;-57
2021/03/12 13:28:40;;;;;;;26.23;13.37;;;;;;;;;;4356292;32;20343;-56
2021/03/12 13:31:06;;;;;;;17.47;9.30;;;;;;;;;;4342971;32;20242;-59
2021/03/12 13:33:31;;;;;;;64.87;34.57;;;;;;;;;;4343641;32;20254;-58
2021/03/12 13:35:57;;;;;;;27.30;15.07;;;;;;;;;;4365928;32;20329;-57
2021/03/12 13:38:25;;;;;;;71.00;34.60;;;;;;;;;;4342498;32;20344;-57
2021/03/12 13:40:57;;;;;;;29.57;12.17;;;;;;;;;;4356079;32;20836;-57
2021/03/12 13:43:25;;;;;;;16.40;10.50;;;;;;;;;;4357070;32;20259;-58
2021/03/12 13:45:51;;;;;;;43.53;23.40;;;;;;;;;;4356974;32;20304;-58
2021/03/12 13:48:16;;;;;;;41.37;23.10;;;;;;;;;;4356819;32;20258;-58
2021/03/12 13:50:42;;;;;;;51.20;24.87;;;;;;;;;;4355512;32;20217;-58
2021/03/12 13:53:07;;;;;;;18.40;9.23;;;;;;;;;;4356918;32;20371;-57
2021/03/12 13:55:33;;;;;;;31.57;15.70;;;;;;;;;;4342711;32;20292;-58
2021/03/12 13:57:59;;;;;;;34.77;19.33;;;;;;;;;;4356845;32;20277;-58
2021/03/12 14:00:24;;;;;;;41.07;21.20;;;;;;;;;;4356165;32;20666;-58
2021/03/12 14:02:50;;;;;;;31.13;15.53;;;;;;;;;;4342722;32;20717;-60
2021/03/12 14:05:16;;;;;;;14.03;10.77;;;;;;;;;;4343264;32;20300;-58
2021/03/12 14:07:42;;;;;;;25.77;11.63;;;;;;;;;;4349308;32;20226;-58
2021/03/12 14:10:09;;;;;;;49.57;26.17;;;;;;;;;;4347837;32;20379;-59
2021/03/12 14:12:34;;;;;;;50.00;25.63;;;;;;;;;;4342482;32;20235;-59
2021/03/12 14:15:00;;;;;;;39.33;22.93;;;;;;;;;;4327593;32;20317;-59
2021/03/12 14:17:27;;;;;;;37.00;18.77;;;;;;;;;;4340437;32;20270;-59
2021/03/12 14:19:53;;;;;;;33.13;17.63;;;;;;;;;;4332495;33;20310;-57
2021/03/12 14:22:18;;;;;;;89.07;38.27;;;;;;;;;;4344208;32;20312;-58